Time;durP1;ratioP1;P1;durP2;ratioP2;P2;SDS_P1;SDS_P2;PMS_P1;PMS_P2;Temp;Humidity;BMP_temperature;BMP_pressure;BME280_temperature;BME280_humidity;BME280_pressure;Samples;Min_cycle;Max_cycle;Signal;HPM_P1;HPM_P2
2022/05/14 00:00:55;;;;;;;;;16.00;14.00;;;;;20.87;41.87;100892.05;110556;1259;19719;-48
2022/05/14 00:03:25;;;;;;;;;13.00;13.00;;;;;20.86;41.81;100897.23;110524;1259;18880;-47
2022/05/14 00:05:53;;;;;;;;;13.00;12.67;;;;;20.83;42.01;100897.36;110489;1258;30417;-50
2022/05/14 00:08:21;;;;;;;;;15.67;13.00;;;;;20.87;41.95;100902.94;110568;1259;19593;-48
2022/05/14 00:13:33;;;;;;;;;12.00;12.00;;;;;20.84;42.03;100896.96;110523;1259;18840;-47
2022/05/14 00:16:00;;;;;;;;;12.33;12.00;;;;;20.85;41.98;100890.48;110540;1259;19462;-48
2022/05/14 00:18:28;;;;;;;;;13.00;12.33;;;;;20.84;42.07;100896.79;110493;1259;19644;-47
2022/05/14 00:20:55;;;;;;;;;12.67;12.00;;;;;20.82;41.91;100894.64;110498;1259;19095;-48
2022/05/14 00:23:22;;;;;;;;;13.00;13.00;;;;;20.83;41.98;100893.02;110440;1258;19697;-45
2022/05/14 00:25:49;;;;;;;;;12.67;12.67;;;;;20.83;41.88;100893.81;110525;1259;19114;-49
2022/05/14 00:28:17;;;;;;;;;14.50;13.00;;;;;20.81;42.01;100892.33;110460;1259;18825;-48
2022/05/14 00:30:44;;;;;;;;;14.00;14.00;;;;;20.84;41.97;100895.11;110479;1256;19652;-48
2022/05/14 00:33:11;;;;;;;;;13.00;13.00;;;;;20.79;41.72;100894.02;110452;1259;18785;-47
2022/05/14 00:35:38;;;;;;;;;15.33;14.00;;;;;20.74;41.98;100892.10;110411;1259;19195;-49
2022/05/14 00:38:06;;;;;;;;;15.50;15.50;;;;;20.72;42.13;100895.21;110547;1258;19481;-48
2022/05/14 00:40:33;;;;;;;;;16.00;13.00;;;;;20.69;41.95;100893.02;110552;1259;18672;-47
2022/05/14 00:43:00;;;;;;;;;18.33;16.00;;;;;20.67;41.97;100895.59;110526;1259;18777;-48
2022/05/14 00:45:28;;;;;;;;;14.50;14.00;;;;;20.64;42.08;100897.05;110528;1259;19378;-48
2022/05/14 00:47:55;;;;;;;;;18.67;17.33;;;;;20.65;42.00;100897.81;110503;1259;18805;-50
2022/05/14 00:50:22;;;;;;;;;16.00;15.00;;;;;20.66;42.04;100898.29;110563;1259;18932;-51
2022/05/14 00:52:50;;;;;;;;;19.00;16.00;;;;;20.67;41.88;100891.36;110543;1259;21398;-45
2022/05/14 00:55:17;;;;;;;;;16.67;16.33;;;;;20.63;42.03;100889.56;110500;1258;22223;-48
2022/05/14 00:57:44;;;;;;;;;18.00;16.00;;;;;20.59;42.11;100888.32;110528;1258;18791;-48
2022/05/14 01:00:12;;;;;;;;;16.67;16.33;;;;;20.64;42.19;100889.61;110691;1258;19446;-47
2022/05/14 01:02:39;;;;;;;;;24.00;20.00;;;;;20.63;42.01;100891.34;110534;1259;19100;-47
2022/05/14 01:05:06;;;;;;;;;22.50;19.50;;;;;20.60;42.18;100888.77;110576;1259;20237;-47
2022/05/14 01:07:33;;;;;;;;;17.00;17.00;;;;;20.63;42.27;100886.85;110539;1259;19439;-48
2022/05/14 01:10:01;;;;;;;;;20.50;20.00;;;;;20.63;42.15;100878.98;110537;1259;19661;-48
2022/05/14 01:12:33;;;;;;;;;20.50;20.00;;;;;20.62;42.12;100878.90;110535;1259;18685;-48
2022/05/14 01:15:00;;;;;;;;;18.33;16.67;;;;;20.62;42.04;100878.57;110486;1259;19522;-47
2022/05/14 01:17:27;;;;;;;;;16.67;15.33;;;;;20.59;42.23;100871.77;110587;1259;20066;-48
2022/05/14 01:19:54;;;;;;;;;18.00;16.67;;;;;20.62;42.18;100871.80;110534;1259;19051;-48
2022/05/14 01:22:22;;;;;;;;;23.00;20.00;;;;;20.65;42.25;100870.95;110554;1258;19464;-47
2022/05/14 01:27:34;;;;;;;;;21.00;20.00;;;;;20.62;42.16;100869.45;110542;1259;18768;-48
2022/05/14 01:30:01;;;;;;;;;20.00;19.67;;;;;20.63;42.13;100871.38;110470;1259;19609;-49
2022/05/14 01:32:29;;;;;;;;;20.00;19.00;;;;;20.65;42.05;100870.02;110621;1259;22268;-48
2022/05/14 01:34:56;;;;;;;;;22.00;19.00;;;;;20.66;42.15;100870.30;110546;1258;19020;-48
2022/05/14 01:37:24;;;;;;;;;19.00;17.00;;;;;20.64;42.13;100870.67;110513;1259;22187;-47
2022/05/14 01:39:51;;;;;;;;;21.00;18.33;;;;;20.66;42.27;100867.62;110551;1259;23181;-48
2022/05/14 01:42:19;;;;;;;;;15.33;15.00;;;;;20.65;42.23;100865.13;110504;1259;18895;-47
2022/05/14 01:44:46;;;;;;;;;16.00;16.00;;;;;20.62;42.41;100864.20;110498;1259;19474;-46
2022/05/14 01:47:13;;;;;;;;;19.67;19.00;;;;;20.54;42.48;100860.52;110556;1258;19210;-49
2022/05/14 01:49:40;;;;;;;;;15.33;14.33;;;;;20.56;42.63;100858.88;110469;1258;18922;-50
2022/05/14 01:52:08;;;;;;;;;19.33;15.00;;;;;20.61;42.35;100857.27;110528;1258;19440;-46
2022/05/14 01:54:35;;;;;;;;;19.00;17.00;;;;;20.64;42.31;100855.66;110537;1258;18788;-46
2022/05/14 01:57:02;;;;;;;;;17.00;17.00;;;;;20.64;42.57;100854.02;110479;1259;22223;-50
2022/05/14 01:59:29;;;;;;;;;14.33;14.33;;;;;20.58;42.70;100853.56;110581;1259;19415;-49
2022/05/14 02:01:57;;;;;;;;;16.33;15.00;;;;;20.61;42.42;100854.70;110554;1258;19118;-48
2022/05/14 02:04:24;;;;;;;;;16.00;16.00;;;;;20.59;42.74;100853.84;110532;1259;20200;-47
2022/05/14 02:06:52;;;;;;;;;19.50;16.50;;;;;20.62;42.76;100853.88;110436;1258;19895;-47
2022/05/14 02:09:20;;;;;;;;;15.33;13.00;;;;;20.60;42.54;100856.11;110472;1259;22886;-46
2022/05/14 02:11:47;;;;;;;;;16.00;13.00;;;;;20.59;42.70;100853.48;110524;1259;19067;-47
2022/05/14 02:14:15;;;;;;;;;15.00;15.00;;;;;20.60;42.63;100857.78;110572;1259;22653;-48
2022/05/14 02:16:42;;;;;;;;;13.67;13.00;;;;;20.53;42.68;100857.00;110522;1259;18791;-48
2022/05/14 02:19:09;;;;;;;;;13.00;12.00;;;;;20.51;42.98;100851.63;110535;1259;18888;-48
2022/05/14 02:21:36;;;;;;;;;15.00;13.00;;;;;20.55;42.83;100859.56;110536;1259;19829;-48
2022/05/14 02:24:04;;;;;;;;;18.50;14.00;;;;;20.59;42.88;100857.55;110448;1259;20124;-48
2022/05/14 02:26:31;;;;;;;;;12.33;11.67;;;;;20.58;43.06;100853.64;110512;1261;18724;-48
2022/05/14 02:28:58;;;;;;;;;13.67;12.67;;;;;20.58;43.00;100856.56;110538;1259;19575;-48
2022/05/14 02:31:27;;;;;;;;;12.00;12.00;;;;;20.56;42.94;100857.77;110543;1258;21926;-50
2022/05/14 02:33:55;;;;;;;;;16.00;13.00;;;;;20.58;42.95;100855.79;110520;1259;19403;-47
2022/05/14 02:36:22;;;;;;;;;15.33;13.00;;;;;20.61;42.95;100860.49;110520;1259;19458;-47
2022/05/14 02:38:49;;;;;;;;;15.00;13.00;;;;;20.57;43.28;100849.03;110488;1259;18682;-45
2022/05/14 02:41:16;;;;;;;;;10.00;10.00;;;;;20.57;43.09;100849.85;110681;1259;18866;-48
2022/05/14 02:43:44;;;;;;;;;15.00;15.00;;;;;20.55;43.10;100847.88;110557;1258;22840;-49
2022/05/14 02:46:12;;;;;;;;;23.00;21.00;;;;;20.58;43.36;100847.67;110522;1259;18748;-48
2022/05/14 02:48:39;;;;;;;;;17.00;16.00;;;;;20.60;43.22;100847.16;110544;1259;18759;-47
2022/05/14 02:51:07;;;;;;;;;16.33;16.00;;;;;20.60;43.36;100850.48;110490;1261;19643;-48
2022/05/14 02:53:34;;;;;;;;;17.00;16.00;;;;;20.57;43.09;100851.56;110736;1258;18690;-48
2022/05/14 02:56:01;;;;;;;;;15.00;15.00;;;;;20.61;43.20;100851.10;110556;1258;23180;-48
2022/05/14 03:01:14;;;;;;;;;18.00;16.33;;;;;20.60;43.16;100853.94;110571;1258;18713;-49
2022/05/14 03:03:42;;;;;;;;;15.00;15.00;;;;;20.60;43.27;100857.17;110476;1261;18850;-47
2022/05/14 03:06:09;;;;;;;;;15.50;15.00;;;;;20.60;43.39;100857.00;110451;1259;22854;-46
2022/05/14 03:08:37;;;;;;;;;16.00;15.00;;;;;20.56;43.53;100845.50;110585;1259;22232;-47
2022/05/14 03:11:04;;;;;;;;;14.00;13.00;;;;;20.57;43.50;100847.91;110463;1259;18796;-46
2022/05/14 03:13:31;;;;;;;;;12.33;12.00;;;;;20.58;43.57;100854.00;110561;1259;19649;-51
2022/05/14 03:15:59;;;;;;;;;13.00;12.00;;;;;20.59;43.56;100852.20;110553;1259;19390;-47
2022/05/14 03:18:26;;;;;;;;;16.00;13.00;;;;;20.62;43.27;100853.02;110524;1259;18941;-48
2022/05/14 03:20:53;;;;;;;;;15.33;13.00;;;;;20.59;43.39;100856.80;110514;1259;22351;-49
2022/05/14 03:23:20;;;;;;;;;14.33;13.00;;;;;20.58;43.45;100859.39;110589;1258;22054;-47
2022/05/14 03:25:48;;;;;;;;;12.00;12.00;;;;;20.59;43.44;100862.02;110554;1259;18807;-49
2022/05/14 03:28:16;;;;;;;;;13.00;13.00;;;;;20.59;43.62;100863.27;110541;1258;19803;-49
2022/05/14 03:30:43;;;;;;;;;10.33;10.33;;;;;20.61;43.60;100868.53;110476;1260;19721;-46
2022/05/14 03:33:10;;;;;;;;;12.00;12.00;;;;;20.62;43.41;100868.21;110489;1262;18938;-47
2022/05/14 03:35:37;;;;;;;;;9.67;9.67;;;;;20.62;43.35;100869.11;110584;1259;19423;-49
2022/05/14 03:38:05;;;;;;;;;13.00;12.00;;;;;20.64;43.57;100870.16;110569;1259;18743;-47
2022/05/14 03:40:32;;;;;;;;;12.00;12.00;;;;;20.63;43.44;100867.75;110553;1259;18700;-47
2022/05/14 03:42:59;;;;;;;;;13.33;12.67;;;;;20.59;43.56;100866.94;110638;1259;19590;-48
2022/05/14 03:45:26;;;;;;;;;9.00;9.00;;;;;20.53;43.63;100868.61;110462;1259;19087;-46
2022/05/14 03:47:54;;;;;;;;;9.00;9.00;;;;;20.57;43.63;100868.41;110394;1259;19507;-49
2022/05/14 03:50:21;;;;;;;;;10.67;9.00;;;;;20.58;43.79;100865.04;110552;1259;20952;-49
2022/05/14 03:52:48;;;;;;;;;9.67;9.67;;;;;20.59;43.67;100858.01;110546;1258;19735;-47
2022/05/14 03:55:15;;;;;;;;;13.00;12.67;;;;;20.62;43.74;100853.52;110538;1259;18823;-49
2022/05/14 03:57:43;;;;;;;;;10.00;10.00;;;;;20.63;43.71;100856.62;110528;1259;19553;-49
2022/05/14 04:00:11;;;;;;;;;10.00;9.50;;;;;20.65;43.61;100856.41;110480;1261;18932;-48
2022/05/14 04:02:38;;;;;;;;;9.00;9.00;;;;;20.67;43.55;100855.28;110754;1258;22053;-47
2022/05/14 04:05:05;;;;;;;;;10.00;8.67;;;;;20.69;43.41;100859.56;110484;1259;19551;-50
2022/05/14 04:07:33;;;;;;;;;10.33;10.00;;;;;20.80;43.45;100856.13;110435;1259;18413;-50
2022/05/14 04:10:00;;;;;;;;;10.00;9.00;;;;;20.87;43.28;100848.86;110475;1259;19161;-47
2022/05/14 04:12:27;;;;;;;;;8.67;8.67;;;;;20.98;42.93;100849.36;110326;1259;19857;-49
2022/05/14 04:14:55;;;;;;;;;9.00;9.00;;;;;21.00;42.81;100847.02;110539;1259;18751;-49
2022/05/14 04:17:22;;;;;;;;;11.67;9.67;;;;;21.03;42.87;100843.54;110518;1259;18857;-48
2022/05/14 04:19:50;;;;;;;;;11.33;10.67;;;;;21.07;42.78;100833.49;110497;1259;19540;-49
2022/05/14 04:22:17;;;;;;;;;13.33;12.00;;;;;20.98;43.01;100831.58;110503;1259;19159;-46
2022/05/14 04:24:44;;;;;;;;;10.50;8.50;;;;;20.96;42.92;100830.20;110493;1259;18884;-46
2022/05/14 04:27:11;;;;;;;;;10.00;9.00;;;;;20.95;43.11;100831.06;110484;1260;19423;-48
2022/05/14 04:29:39;;;;;;;;;12.00;10.00;;;;;20.97;43.03;100823.83;110491;1260;18697;-47
2022/05/14 04:32:06;;;;;;;;;15.33;13.00;;;;;20.93;43.06;100823.75;110464;1258;18784;-46
2022/05/14 04:34:33;;;;;;;;;14.00;13.00;;;;;21.00;42.89;100814.66;110504;1259;22428;-49
2022/05/14 04:37:00;;;;;;;;;16.00;14.00;;;;;21.06;42.75;100816.05;110473;1259;18978;-47
2022/05/14 04:39:32;;;;;;;;;11.00;11.00;;;;;21.03;42.96;100815.48;110484;1259;18925;-48
2022/05/14 04:42:00;;;;;;;;;12.00;12.00;;;;;21.05;43.03;100815.83;110476;1261;19785;-47
2022/05/14 04:44:28;;;;;;;;;13.33;13.00;;;;;21.05;42.78;100818.96;110514;1259;22271;-49
2022/05/14 04:46:55;;;;;;;;;13.00;12.00;;;;;21.03;43.08;100818.46;110514;1259;18802;-46
2022/05/14 04:49:22;;;;;;;;;16.50;14.50;;;;;20.96;43.08;100812.02;110479;1259;20911;-47
2022/05/14 04:51:50;;;;;;;;;14.00;13.00;;;;;20.94;43.03;100808.25;110442;1259;18650;-49
2022/05/14 04:54:17;;;;;;;;;17.00;16.00;;;;;20.94;43.15;100806.30;110486;1261;20346;-49
2022/05/14 04:56:44;;;;;;;;;17.67;15.33;;;;;20.92;43.41;100808.69;110522;1259;22068;-49
2022/05/14 04:59:12;;;;;;;;;16.00;15.33;;;;;20.92;43.21;100814.25;110559;1259;22871;-49
2022/05/14 05:03:16;;;;;;;;;17.00;16.50;;;;;20.93;43.64;100819.80;110543;1258;19053;-49
2022/05/14 05:04:27;;;;;;;;;15.00;13.00;;;;;20.98;43.38;100817.21;110505;1259;19749;-48
2022/05/14 05:06:54;;;;;;;;;14.67;13.33;;;;;21.01;43.44;100816.32;110515;1259;18844;-49
2022/05/14 05:09:21;;;;;;;;;12.67;12.00;;;;;21.01;43.35;100817.62;110491;1259;18780;-49
2022/05/14 05:11:50;;;;;;;;;12.00;11.67;;;;;21.03;43.41;100822.68;110520;1259;19512;-49
2022/05/14 05:14:17;;;;;;;;;14.00;13.00;;;;;21.06;43.23;100825.05;110569;1258;18887;-49
2022/05/14 05:16:46;;;;;;;;;14.00;13.00;;;;;21.08;43.35;100829.13;110471;1260;19024;-50
2022/05/14 05:19:13;;;;;;;;;10.50;10.50;;;;;21.06;43.20;100828.08;110514;1259;22064;-51
2022/05/14 05:21:40;;;;;;;;;12.33;12.00;;;;;21.08;43.11;100824.05;110489;1259;18772;-48
2022/05/14 05:24:07;;;;;;;;;14.00;12.67;;;;;21.09;43.17;100824.91;110467;1261;22043;-49
2022/05/14 05:26:35;;;;;;;;;16.67;16.00;;;;;21.15;43.08;100825.66;110516;1259;21062;-48
2022/05/14 05:29:02;;;;;;;;;16.33;16.33;;;;;21.19;42.94;100820.66;110430;1259;22264;-49
2022/05/14 05:31:31;;;;;;;;;14.33;14.33;;;;;21.09;43.03;100825.41;110539;1259;18298;-49
2022/05/14 05:33:58;;;;;;;;;15.67;13.00;;;;;20.98;43.13;100828.11;110539;1259;19545;-49
2022/05/14 05:36:25;;;;;;;;;12.00;12.00;;;;;21.02;43.34;100836.41;110525;1259;18783;-49
2022/05/14 05:38:53;;;;;;;;;12.67;12.00;;;;;21.04;43.47;100836.16;110539;1258;18886;-49
2022/05/14 05:41:20;;;;;;;;;11.00;11.00;;;;;21.07;43.51;100835.09;108660;1261;2466248;-48
2022/05/14 05:43:47;;;;;;;;;12.00;12.00;;;;;21.07;43.31;100834.85;110477;1260;18866;-46
2022/05/14 05:46:14;;;;;;;;;9.00;9.00;;;;;21.07;43.15;100837.46;110468;1261;22195;-48
2022/05/14 05:48:42;;;;;;;;;11.33;11.33;;;;;21.13;43.00;100837.46;110496;1260;22086;-48
2022/05/14 05:51:09;;;;;;;;;9.00;9.00;;;;;21.13;43.01;100836.27;110467;1261;18419;-49
2022/05/14 05:59:06;;;;;;;;;13.33;12.00;;;;;21.07;42.82;100841.60;110474;1262;18638;-49
2022/05/14 06:01:33;;;;;;;;;14.67;13.00;;;;;21.10;42.75;100840.35;110410;1259;22322;-49
2022/05/14 06:04:00;;;;;;;;;16.00;13.00;;;;;21.12;42.83;100839.23;110387;1258;19523;-52
2022/05/14 06:06:28;;;;;;;;;17.00;15.00;;;;;21.17;42.24;100835.54;110427;1259;18761;-48
2022/05/14 06:08:55;;;;;;;;;13.00;12.00;;;;;21.19;41.31;100837.84;110367;1259;23453;-48
2022/05/14 06:11:22;;;;;;;;;20.00;17.33;;;;;21.21;41.01;100845.46;110556;1258;19581;-48
2022/05/14 06:13:50;;;;;;;;;13.00;13.00;;;;;21.21;40.78;100842.52;110460;1261;18796;-49
2022/05/14 06:16:17;;;;;;;;;16.00;14.00;;;;;21.20;40.55;100845.40;110565;1258;19001;-51
2022/05/14 06:18:45;;;;;;;;;12.67;10.00;;;;;21.15;40.41;100849.06;110546;1259;19770;-48
2022/05/14 06:21:12;;;;;;;;;10.50;9.50;;;;;21.09;40.16;100844.19;110503;1259;19049;-49
2022/05/14 06:23:39;;;;;;;;;12.67;11.33;;;;;21.01;40.06;100843.98;110538;1259;18831;-49
2022/05/14 06:26:08;;;;;;;;;12.00;11.33;;;;;21.01;40.11;100845.25;110317;1259;19585;-51
2022/05/14 06:28:35;;;;;;;;;12.00;12.00;;;;;20.95;40.61;100847.00;110357;1261;18735;-50
2022/05/14 06:31:03;;;;;;;;;8.33;8.33;;;;;21.02;40.65;100847.31;110441;1261;18966;-49
2022/05/14 06:33:30;;;;;;;;;9.00;8.67;;;;;21.11;40.36;100850.95;110413;1262;30116;-49
2022/05/14 06:35:59;;;;;;;;;10.00;9.50;;;;;21.22;40.16;100854.42;110437;1261;18385;-48
2022/05/14 06:38:27;;;;;;;;;10.00;9.00;;;;;21.25;40.32;100852.61;110498;1261;18939;-46
2022/05/14 06:40:54;;;;;;;;;12.00;10.00;;;;;21.35;40.60;100855.69;110454;1261;19472;-48
2022/05/14 06:43:21;;;;;;;;;9.00;9.00;;;;;21.46;40.35;100851.48;110469;1261;22423;-50
2022/05/14 06:45:49;;;;;;;;;9.00;8.67;;;;;21.69;40.43;100844.45;110387;1261;18842;-49
2022/05/14 06:48:16;;;;;;;;;9.67;9.67;;;;;21.87;40.49;100836.34;110424;1261;19480;-50
2022/05/14 06:50:43;;;;;;;;;8.67;8.67;;;;;22.00;40.44;100829.66;110520;1260;18530;-49
2022/05/14 06:53:10;;;;;;;;;9.50;8.50;;;;;22.12;40.62;100835.28;110435;1262;18899;-51
2022/05/14 06:55:38;;;;;;;;;9.00;8.33;;;;;22.24;40.74;100840.48;110448;1261;19400;-47
2022/05/14 06:58:05;;;;;;;;;8.33;8.33;;;;;22.31;40.97;100838.50;110466;1260;18639;-50
2022/05/14 07:00:32;;;;;;;;;9.50;8.50;;;;;22.39;40.83;100839.75;110447;1261;18952;-48
2022/05/14 07:08:26;;;;;;;;;8.33;6.67;;;;;21.13;40.35;100846.24;110429;1261;19044;-50
2022/05/14 07:10:53;;;;;;;;;11.33;9.67;;;;;21.11;40.29;100840.61;110450;1261;20953;-49
2022/05/14 07:13:20;;;;;;;;;9.67;8.00;;;;;21.30;40.15;100837.84;110453;1261;18484;-49
2022/05/14 07:15:48;;;;;;;;;10.67;10.33;;;;;21.72;40.32;100831.33;110423;1262;18712;-49
2022/05/14 07:18:15;;;;;;;;;12.33;10.67;;;;;22.02;40.00;100828.33;110448;1261;20993;-43
2022/05/14 07:20:42;;;;;;;;;10.00;9.33;;;;;21.95;39.41;100826.99;110496;1261;18852;-48
2022/05/14 07:23:10;;;;;;;;;10.00;10.00;;;;;21.62;39.24;100827.95;110443;1261;19329;-47
2022/05/14 07:25:37;;;;;;;;;8.50;8.00;;;;;21.49;39.37;100828.80;110479;1261;19524;-48
2022/05/14 07:28:04;;;;;;;;;9.00;9.00;;;;;21.44;39.09;100829.19;110484;1259;18872;-49
2022/05/14 07:30:32;;;;;;;;;9.00;8.00;;;;;21.43;39.27;100828.52;110434;1259;22954;-48
2022/05/14 07:32:59;;;;;;;;;10.00;10.00;;;;;21.71;39.30;100830.20;110508;1259;19623;-49
2022/05/14 07:35:26;;;;;;;;;9.00;9.00;;;;;21.94;39.30;100827.20;110572;1259;19236;-49
2022/05/14 07:37:54;;;;;;;;;9.00;9.00;;;;;22.10;39.16;100831.33;110651;1258;22701;-48
2022/05/14 07:40:21;;;;;;;;;10.67;9.33;;;;;22.22;39.01;100835.44;110657;1259;20623;-51
2022/05/14 07:42:48;;;;;;;;;10.67;9.67;;;;;22.29;39.08;100829.61;110554;1259;18615;-49
2022/05/14 07:45:15;;;;;;;;;9.00;9.00;;;;;22.38;39.42;100831.67;110488;1262;21262;-48
2022/05/14 07:47:43;;;;;;;;;9.00;9.00;;;;;22.40;39.38;100827.14;110492;1259;19551;-49
2022/05/14 07:50:10;;;;;;;;;9.33;7.00;;;;;22.44;39.45;100826.70;110486;1258;18556;-48
2022/05/14 07:52:37;;;;;;;;;9.33;9.00;;;;;22.48;39.42;100824.86;110522;1259;18778;-50
2022/05/14 07:55:04;;;;;;;;;10.00;9.00;;;;;22.48;39.40;100821.51;110524;1259;19449;-48
2022/05/14 07:57:32;;;;;;;;;9.00;7.00;;;;;22.51;39.47;100821.55;110459;1259;18957;-49
2022/05/14 07:59:59;;;;;;;;;10.50;9.00;;;;;22.58;39.59;100819.18;110697;1258;18747;-48
2022/05/14 08:02:28;;;;;;;;;8.50;7.50;;;;;22.63;39.79;100814.21;110569;1259;19521;-49
2022/05/14 08:04:56;;;;;;;;;10.00;7.50;;;;;22.70;39.70;100818.10;110521;1259;27641;-49
2022/05/14 08:07:23;;;;;;;;;6.33;6.33;;;;;22.68;39.46;100813.48;110519;1259;18784;-47
2022/05/14 08:09:50;;;;;;;;;11.00;9.67;;;;;22.25;38.59;100815.98;110503;1259;19641;-46
2022/05/14 08:12:17;;;;;;;;;9.50;8.00;;;;;21.82;38.45;100816.08;110469;1259;18712;-48
2022/05/14 08:14:45;;;;;;;;;7.00;7.00;;;;;21.76;38.06;100812.47;110514;1260;18779;-48
2022/05/14 08:17:12;;;;;;;;;11.33;10.33;;;;;21.87;37.70;100807.17;110480;1261;19841;-47
2022/05/14 08:19:39;;;;;;;;;12.00;9.00;;;;;21.81;37.34;100806.19;110374;1259;18475;-52
2022/05/14 08:24:52;;;;;;;;;8.67;8.33;;;;;21.73;37.74;100812.09;110432;1259;20860;-47
2022/05/14 08:27:19;;;;;;;;;11.00;9.00;;;;;21.74;38.43;100813.98;110402;1259;18899;-49
2022/05/14 08:29:47;;;;;;;;;8.67;8.00;;;;;21.74;38.35;100804.72;110462;1260;19093;-50
2022/05/14 08:32:14;;;;;;;;;9.00;9.00;;;;;21.78;38.28;100817.00;110427;1261;20886;-48
2022/05/14 08:34:42;;;;;;;;;8.00;7.00;;;;;21.75;38.24;100815.65;110400;1261;20883;-49
2022/05/14 08:37:09;;;;;;;;;9.50;8.00;;;;;21.73;37.95;100808.17;110359;1261;22489;-50
2022/05/14 08:39:36;;;;;;;;;9.67;9.00;;;;;21.80;37.68;100809.61;110396;1261;19495;-48
2022/05/14 08:42:03;;;;;;;;;9.00;8.33;;;;;21.84;37.55;100810.27;110440;1260;18613;-49
2022/05/14 08:44:32;;;;;;;;;7.33;6.67;;;;;21.87;37.46;100813.42;110484;1261;18973;-49
2022/05/14 08:46:59;;;;;;;;;6.00;6.00;;;;;21.94;37.47;100814.31;110443;1261;26169;-51
2022/05/14 08:49:26;;;;;;;;;10.00;8.00;;;;;22.00;37.59;100818.95;110451;1260;18664;-50
2022/05/14 08:51:56;;;;;;;;;8.50;8.00;;;;;21.98;37.47;100817.66;110444;1261;18707;-46
2022/05/14 08:54:23;;;;;;;;;6.00;6.00;;;;;21.96;37.64;100821.73;110467;1261;19455;-49
2022/05/14 08:56:51;;;;;;;;;12.00;8.00;;;;;21.93;37.85;100819.34;110478;1261;22206;-49
2022/05/14 08:59:18;;;;;;;;;6.67;5.67;;;;;21.85;37.64;100822.64;110505;1261;18808;-48
2022/05/14 09:01:45;;;;;;;;;7.33;7.33;;;;;21.82;37.60;100825.73;110469;1260;19768;-49
2022/05/14 09:04:13;;;;;;;;;8.00;8.00;;;;;21.79;37.49;100827.80;110463;1261;18695;-48
2022/05/14 09:06:40;;;;;;;;;8.33;8.00;;;;;21.75;37.58;100821.70;110479;1260;18736;-48
2022/05/14 09:09:08;;;;;;;;;10.67;8.00;;;;;21.58;37.79;100824.84;110456;1261;19447;-50
2022/05/14 09:11:35;;;;;;;;;8.00;8.00;;;;;21.48;37.82;100831.21;110487;1260;18414;-48
2022/05/14 09:14:03;;;;;;;;;9.00;8.00;;;;;21.25;38.09;100824.84;110452;1260;18834;-49
2022/05/14 09:16:31;;;;;;;;;9.00;8.00;;;;;21.06;38.50;100829.58;110460;1261;22005;-49
2022/05/14 09:18:58;;;;;;;;;8.00;7.33;;;;;20.94;38.54;100830.41;110437;1261;18717;-48
2022/05/14 09:21:25;;;;;;;;;9.00;8.50;;;;;20.97;38.53;100824.75;110482;1259;18816;-49
2022/05/14 09:23:52;;;;;;;;;8.33;8.00;;;;;21.02;38.64;100829.63;110507;1259;19575;-51
2022/05/14 09:26:20;;;;;;;;;13.67;12.67;;;;;21.05;38.91;100826.80;110470;1260;18505;-48
2022/05/14 09:28:47;;;;;;;;;14.33;12.00;;;;;21.06;38.67;100829.90;110461;1261;20196;-49
2022/05/14 09:31:14;;;;;;;;;9.33;9.33;;;;;21.07;38.59;100826.67;110423;1260;19989;-51
2022/05/14 09:33:42;;;;;;;;;11.33;9.67;;;;;21.06;38.83;100828.46;110431;1261;18817;-48
2022/05/14 09:36:09;;;;;;;;;8.00;8.00;;;;;21.05;39.04;100826.56;110426;1260;22210;-52
2022/05/14 09:38:36;;;;;;;;;10.00;9.00;;;;;21.15;39.26;100825.29;110528;1260;19586;-48
2022/05/14 09:41:05;;;;;;;;;9.00;8.00;;;;;21.21;39.15;100829.11;110458;1261;18453;-48
2022/05/14 09:43:33;;;;;;;;;8.00;8.00;;;;;21.29;39.35;100828.75;110438;1260;19161;-47
2022/05/14 09:46:01;;;;;;;;;8.67;8.00;;;;;21.35;39.29;100823.55;110456;1261;19581;-49
2022/05/14 09:48:28;;;;;;;;;6.67;6.67;;;;;21.36;39.18;100818.33;110360;1259;18354;-48
2022/05/14 09:50:55;;;;;;;;;9.00;8.00;;;;;21.34;39.28;100822.66;110332;1259;18736;-47
2022/05/14 09:53:22;;;;;;;;;8.67;8.00;;;;;21.30;39.25;100821.30;110373;1258;21814;-47
2022/05/14 09:55:50;;;;;;;;;6.67;6.67;;;;;21.30;39.09;100821.03;110465;1259;22243;-47
2022/05/14 09:58:17;;;;;;;;;8.00;8.00;;;;;21.27;39.17;100823.17;110494;1258;19177;-47
2022/05/14 10:00:44;;;;;;;;;10.00;8.00;;;;;21.25;39.14;100823.61;110339;1259;21115;-48
2022/05/14 10:03:11;;;;;;;;;9.00;9.00;;;;;21.23;39.07;100825.59;110328;1259;18487;-48
2022/05/14 10:05:39;;;;;;;;;8.00;7.33;;;;;21.23;39.27;100830.37;110472;1259;18735;-48
2022/05/14 10:08:06;;;;;;;;;8.00;8.00;;;;;21.22;39.21;100831.94;110504;1259;19521;-48
2022/05/14 10:10:33;;;;;;;;;9.00;8.67;;;;;21.21;38.90;100831.32;110590;1258;18621;-49
2022/05/14 10:13:00;;;;;;;;;8.00;8.00;;;;;21.24;38.96;100828.63;110584;1259;19187;-49
2022/05/14 10:15:27;;;;;;;;;7.33;6.67;;;;;21.24;38.97;100835.67;110505;1259;21025;-48
2022/05/14 10:17:55;;;;;;;;;9.00;9.00;;;;;21.24;39.13;100840.82;110540;1259;18669;-49
2022/05/14 10:20:22;;;;;;;;;7.00;7.00;;;;;21.17;38.79;100843.16;110754;1258;23095;-49
2022/05/14 10:28:19;;;;;;;;;9.33;9.33;;;;;21.17;38.80;100835.92;110629;1258;20153;-48
2022/05/14 10:30:47;;;;;;;;;9.00;8.33;;;;;21.20;38.70;100836.16;110552;1259;19471;-46
2022/05/14 10:33:17;;;;;;;;;9.00;9.00;;;;;21.21;38.60;100840.15;110570;1259;18534;-46
2022/05/14 10:35:45;;;;;;;;;9.33;8.67;;;;;21.26;38.68;100842.17;110604;1259;18655;-48
2022/05/14 10:38:12;;;;;;;;;6.00;6.00;;;;;21.26;38.74;100840.15;110567;1259;19553;-49
2022/05/14 10:40:39;;;;;;;;;9.00;9.00;;;;;21.29;38.68;100841.29;110551;1259;22212;-48
2022/05/14 10:43:07;;;;;;;;;9.00;8.00;;;;;21.28;38.66;100835.20;110556;1259;18847;-48
2022/05/14 10:45:34;;;;;;;;;15.50;13.00;;;;;21.23;38.78;100837.20;110507;1259;20129;-49
2022/05/14 10:48:01;;;;;;;;;11.33;10.67;;;;;21.21;38.89;100840.52;110522;1259;18521;-50
2022/05/14 10:50:29;;;;;;;;;11.00;10.00;;;;;21.22;38.87;100841.19;110587;1259;22164;-46
2022/05/14 10:52:56;;;;;;;;;13.00;10.00;;;;;21.21;38.99;100842.19;110573;1257;19704;-50
2022/05/14 10:55:24;;;;;;;;;11.00;10.00;;;;;21.21;39.09;100849.82;110551;1258;22935;-49
2022/05/14 10:57:51;;;;;;;;;9.00;9.00;;;;;21.20;38.95;100845.09;110479;1259;18922;-49
2022/05/14 11:00:18;;;;;;;;;12.33;10.67;;;;;21.18;39.14;100848.35;110494;1259;19531;-49
2022/05/14 11:02:45;;;;;;;;;8.50;8.00;;;;;21.16;39.22;100845.48;110606;1259;18397;-48
2022/05/14 11:05:13;;;;;;;;;9.50;9.00;;;;;21.22;39.12;100842.33;110468;1259;18719;-47
2022/05/14 11:07:43;;;;;;;;;10.00;9.67;;;;;21.28;39.21;100842.30;110382;1259;19493;-50
2022/05/14 11:10:10;;;;;;;;;13.33;12.00;;;;;21.35;39.08;100844.70;110257;1261;18903;-49
2022/05/14 11:12:38;;;;;;;;;10.00;9.00;;;;;21.43;39.46;100844.60;110398;1262;19759;-52
2022/05/14 11:15:05;;;;;;;;;12.00;10.00;;;;;21.39;39.70;100842.52;110445;1259;19511;-49
2022/05/14 11:17:32;;;;;;;;;12.33;10.00;;;;;21.18;39.89;100846.02;110468;1261;18735;-49
2022/05/14 11:19:59;;;;;;;;;12.33;10.00;;;;;21.07;40.15;100852.48;110406;1261;21803;-50
2022/05/14 11:22:27;;;;;;;;;9.33;8.33;;;;;21.09;39.98;100850.83;110437;1260;19473;-53
2022/05/14 11:24:54;;;;;;;;;10.00;9.00;;;;;21.01;39.95;100849.33;110411;1261;19144;-48
2022/05/14 11:27:22;;;;;;;;;9.00;9.00;;;;;20.99;39.99;100848.20;110447;1259;18715;-48
2022/05/14 11:29:49;;;;;;;;;10.00;8.67;;;;;21.08;40.02;100856.22;110470;1261;22028;-48
2022/05/14 11:32:16;;;;;;;;;8.00;8.00;;;;;21.20;39.66;100854.88;110428;1260;18493;-49
2022/05/14 11:34:43;;;;;;;;;10.67;9.00;;;;;21.31;39.68;100858.87;110425;1260;18745;-48